Ralston, Wyoming
Current Conditions -  °F | °C
As of 2:35 PM on Monday 24 Nov 2014 (Local Time) from KPOY Reporting Station
Broken Clouds Broken Clouds  
Wind Chill: 22°   Ceiling: 12000
Heat Index: 34°   Visibility: 10mi
Dew Point: 14°   Wind: 20mph
Humidity: 44%   Direction: 330°NNW
Pressure: 30.11"   Gusts: 26mph
Location:  44.72°N, 108.87°W
Report Text: KPOY 242135Z AUTO 33017G23KT 10SM SCT100 BKN120 01/M10 A3011 RMK AO2
Loading
Personal Weather Stations






























Interactive Weather Map New forecast layout! Learn more

10-Day Weather Forecast

Advertisements
Track Severe Weather on mobile